Time;durP1;ratioP1;P1;durP2;ratioP2;P2;SDS_P1;SDS_P2;PMS_P1;PMS_P2;Temp;Humidity;BMP_temperature;BMP_pressure;BME280_temperature;BME280_humidity;BME280_pressure;Samples;Min_cycle;Max_cycle;Signal;HPM_P1;HPM_P2
2021/12/30 00:00:57;;;;;;;52.50;7.22;;;;;;;;;;6220568;23;20016;-60
2021/12/30 00:03:23;;;;;;;44.20;7.78;;;;;;;;;;6245714;23;20016;-60
2021/12/30 00:05:52;;;;;;;41.85;5.20;;;;;;;;;;6245489;23;20016;-60
2021/12/30 00:08:18;;;;;;;50.30;6.82;;;;;;;;;;6245239;23;20012;-61
2021/12/30 00:10:44;;;;;;;46.60;7.20;;;;;;;;;;6245372;23;20057;-60
2021/12/30 00:13:10;;;;;;;49.88;7.63;;;;;;;;;;6245600;23;20483;-60
2021/12/30 00:15:36;;;;;;;47.85;7.03;;;;;;;;;;6245805;23;20031;-60
2021/12/30 00:18:03;;;;;;;47.30;7.70;;;;;;;;;;6246690;23;20402;-60
2021/12/30 00:20:29;;;;;;;51.28;7.20;;;;;;;;;;6219250;23;20091;-60
2021/12/30 00:22:55;;;;;;;48.35;6.72;;;;;;;;;;6245941;23;20364;-60
2021/12/30 00:25:21;;;;;;;47.88;5.80;;;;;;;;;;6247515;23;20031;-60
2021/12/30 00:27:47;;;;;;;30.77;6.53;;;;;;;;;;6245269;23;20008;-60
2021/12/30 00:30:13;;;;;;;28.60;5.95;;;;;;;;;;6246844;23;20026;-60
2021/12/30 00:32:40;;;;;;;49.38;8.20;;;;;;;;;;6220564;23;20012;-61
2021/12/30 00:35:06;;;;;;;36.22;6.10;;;;;;;;;;6246211;23;20310;-60
2021/12/30 00:37:32;;;;;;;43.60;7.32;;;;;;;;;;6221300;23;20016;-60
2021/12/30 00:39:58;;;;;;;34.25;4.95;;;;;;;;;;6245469;23;20020;-60
2021/12/30 00:42:24;;;;;;;31.75;5.10;;;;;;;;;;6220508;23;20047;-60
2021/12/30 00:44:50;;;;;;;29.52;5.00;;;;;;;;;;6246423;23;20008;-60
2021/12/30 00:47:16;;;;;;;34.42;8.30;;;;;;;;;;6246112;23;20019;-61
2021/12/30 00:49:43;;;;;;;50.47;6.35;;;;;;;;;;6244487;23;20353;-61
2021/12/30 00:52:09;;;;;;;43.08;6.30;;;;;;;;;;6245326;23;20019;-61
2021/12/30 00:54:35;;;;;;;29.58;6.88;;;;;;;;;;6244910;23;20016;-61
2021/12/30 00:57:01;;;;;;;43.55;6.53;;;;;;;;;;6219719;23;20022;-61
2021/12/30 00:59:27;;;;;;;36.45;5.10;;;;;;;;;;6246334;23;20012;-61
2021/12/30 01:01:53;;;;;;;41.80;6.30;;;;;;;;;;6245379;23;20074;-61
2021/12/30 01:04:21;;;;;;;34.25;4.90;;;;;;;;;;6245302;23;20061;-61
2021/12/30 01:06:47;;;;;;;35.72;5.05;;;;;;;;;;6245448;23;20008;-60
2021/12/30 01:09:13;;;;;;;36.03;5.63;;;;;;;;;;6219012;23;20016;-60
2021/12/30 01:11:39;;;;;;;39.95;4.97;;;;;;;;;;6219629;23;20008;-61
2021/12/30 01:14:16;;;;;;;44.75;6.80;;;;;;;;;;6245205;23;20012;-61
2021/12/30 01:16:45;;;;;;;40.03;5.80;;;;;;;;;;6219237;23;20008;-61
2021/12/30 01:19:23;;;;;;;45.75;6.53;;;;;;;;;;6220050;23;20016;-61
2021/12/30 01:21:53;;;;;;;56.15;6.85;;;;;;;;;;6245691;23;20322;-61
2021/12/30 01:24:20;;;;;;;41.10;5.38;;;;;;;;;;6245196;23;20012;-61
2021/12/30 01:26:46;;;;;;;30.75;5.00;;;;;;;;;;6245185;23;20368;-61
2021/12/30 01:29:12;;;;;;;50.25;6.53;;;;;;;;;;6219485;23;20070;-61
2021/12/30 01:31:38;;;;;;;48.38;5.72;;;;;;;;;;6245398;23;20012;-60
2021/12/30 01:34:04;;;;;;;41.47;5.95;;;;;;;;;;6245124;23;20070;-61
2021/12/30 01:36:30;;;;;;;38.05;6.72;;;;;;;;;;6244788;23;20012;-60
2021/12/30 01:38:56;;;;;;;38.42;6.13;;;;;;;;;;6219919;23;20020;-61
2021/12/30 01:41:22;;;;;;;43.92;6.38;;;;;;;;;;6245151;23;20091;-61
2021/12/30 01:43:49;;;;;;;40.78;5.60;;;;;;;;;;6245191;23;20016;-61
2021/12/30 01:46:15;;;;;;;34.00;5.63;;;;;;;;;;6245068;23;20073;-60
2021/12/30 01:48:42;;;;;;;49.35;7.90;;;;;;;;;;6219645;23;20429;-61
2021/12/30 01:51:08;;;;;;;43.33;6.35;;;;;;;;;;6219418;23;20059;-60
2021/12/30 01:53:35;;;;;;;41.97;6.47;;;;;;;;;;6219722;23;20019;-61
2021/12/30 01:56:02;;;;;;;57.78;8.10;;;;;;;;;;6220113;23;20055;-60
2021/12/30 01:58:28;;;;;;;44.97;7.22;;;;;;;;;;6245499;23;20016;-60
2021/12/30 02:00:54;;;;;;;46.42;8.60;;;;;;;;;;6244684;23;20503;-60
2021/12/30 02:03:21;;;;;;;43.13;8.73;;;;;;;;;;6244415;23;20051;-62
2021/12/30 02:05:47;;;;;;;31.20;7.20;;;;;;;;;;6220895;23;20016;-60
2021/12/30 02:08:15;;;;;;;65.25;10.75;;;;;;;;;;6221248;23;20496;-60
2021/12/30 02:10:42;;;;;;;41.03;9.10;;;;;;;;;;6247036;23;20306;-61
2021/12/30 02:13:09;;;;;;;50.95;9.60;;;;;;;;;;6247890;23;20016;-61
2021/12/30 02:15:35;;;;;;;48.08;10.07;;;;;;;;;;6246543;23;20019;-61
2021/12/30 02:18:02;;;;;;;62.40;12.00;;;;;;;;;;6246848;23;20016;-61
2021/12/30 02:20:45;;;;;;;64.60;12.02;;;;;;;;;;6221312;23;20012;-60
2021/12/30 02:23:16;;;;;;;56.80;11.07;;;;;;;;;;6247938;23;20016;-61
2021/12/30 02:25:42;;;;;;;;;;;8.50;99.90;;;;;;6248417;23;20027;-61
2021/12/30 02:28:13;;;;;;;56.90;11.25;;;;;;;;;;6247146;23;19911;-61
2021/12/30 02:30:39;;;;;;;61.42;12.07;;;;;;;;;;6220758;23;20022;-60
2021/12/30 02:33:06;;;;;;;62.40;12.60;;;;;;;;;;6246675;23;20008;-60
2021/12/30 02:35:32;;;;;;;53.22;10.48;;;;;;;;;;6246173;23;20008;-61
2021/12/30 02:37:58;;;;;;;63.63;12.45;;;;;;;;;;6247768;23;20016;-60
2021/12/30 02:40:26;;;;;;;62.72;14.30;;;;;;;;;;6246356;23;20012;-60
2021/12/30 02:42:52;;;;;;;64.40;13.70;;;;;;;;;;6246210;23;20023;-61
2021/12/30 02:45:18;;;;;;;67.63;13.68;;;;;;;;;;6246913;23;20095;-60
2021/12/30 02:47:44;;;;;;;52.97;11.38;;;;;;;;;;6246584;23;20051;-60
2021/12/30 02:50:10;;;;;;;53.72;10.80;;;;;;;;;;6245800;23;20101;-61
2021/12/30 02:52:36;;;;;;;64.50;12.60;;;;;;;;;;6246797;23;20012;-60
2021/12/30 02:55:02;;;;;;;64.72;13.05;;;;;;;;;;6246560;23;20019;-61
2021/12/30 02:57:29;;;;;;;62.30;11.23;;;;;;;;;;6246815;23;20012;-60
2021/12/30 02:59:55;;;;;;;59.05;10.90;;;;;;;;;;6245953;23;20014;-61
2021/12/30 03:02:21;;;;;;;59.63;10.52;;;;;;;;;;6246807;23;20023;-60
2021/12/30 03:04:47;;;;;;;67.93;11.98;;;;;;;;;;6221235;23;20314;-60
2021/12/30 03:07:16;;;;;;;45.80;9.48;;;;;;;;;;6247444;23;20102;-60
2021/12/30 03:09:42;;;;;;;62.15;12.40;;;;;;;;;;6220043;23;20016;-60
2021/12/30 03:12:08;;;;;;;49.35;8.07;;;;;;;;;;6246239;23;20012;-60
2021/12/30 03:14:38;;;;;;;58.95;8.95;;;;;;;;;;6247417;23;20015;-60
2021/12/30 03:17:04;;;;;;;53.03;10.70;;;;;;;;;;6247363;23;20012;-61
2021/12/30 03:19:30;;;;;;;55.28;10.18;;;;;;;;;;6246218;23;20008;-60
2021/12/30 03:21:56;;;;;;;52.38;10.50;;;;;;;;;;6246057;23;20090;-60
2021/12/30 03:24:22;;;;;;;57.65;10.10;;;;;;;;;;6246273;23;20019;-60
2021/12/30 03:26:48;;;;;;;64.43;9.43;;;;;;;;;;6220929;23;20456;-61
2021/12/30 03:29:14;;;;;;;68.80;10.60;;;;;;;;;;6245838;23;20012;-61
2021/12/30 03:31:40;;;;;;;49.35;9.07;;;;;;;;;;6245726;23;20012;-60
2021/12/30 03:34:06;;;;;;;50.67;7.82;;;;;;;;;;6245861;23;20019;-60
2021/12/30 03:36:33;;;;;;;58.60;11.63;;;;;;;;;;6220495;23;20016;-60
2021/12/30 03:38:59;;;;;;;62.47;10.00;;;;;;;;;;6247154;23;20016;-61
2021/12/30 03:44:00;;;;;;;54.17;8.95;;;;;;;;;;6245477;22;20082;-64
2021/12/30 03:46:26;;;;;;;60.35;9.90;;;;;;;;;;6221736;23;20016;-63
2021/12/30 03:48:52;;;;;;;57.63;9.20;;;;;;;;;;6246997;23;20020;-63
2021/12/30 03:51:24;;;;;;;60.13;9.23;;;;;;;;;;6220594;23;20024;-63
2021/12/30 03:53:52;;;;;;;55.53;9.70;;;;;;;;;;6220471;23;20015;-63
2021/12/30 03:56:20;;;;;;;58.17;10.65;;;;;;;;;;6221361;23;20020;-63
2021/12/30 03:58:46;;;;;;;67.32;12.10;;;;;;;;;;6245457;23;20030;-62
2021/12/30 04:01:14;;;;;;;66.15;12.43;;;;;;;;;;6220580;23;20023;-63
2021/12/30 04:03:40;;;;;;;67.20;13.35;;;;;;;;;;6220854;23;20012;-63
2021/12/30 04:06:06;;;;;;;62.00;13.38;;;;;;;;;;6245843;23;20031;-63
2021/12/30 04:08:32;;;;;;;51.45;11.38;;;;;;;;;;6244795;23;20008;-63
2021/12/30 04:10:59;;;;;;;71.63;12.55;;;;;;;;;;6220260;23;20073;-63
2021/12/30 04:13:25;;;;;;;69.43;12.75;;;;;;;;;;6244865;23;20012;-63
2021/12/30 04:15:51;;;;;;;77.80;13.43;;;;;;;;;;6247146;23;20058;-63
2021/12/30 04:18:17;;;;;;;79.63;13.32;;;;;;;;;;6245637;23;20012;-63
2021/12/30 04:20:43;;;;;;;68.65;12.52;;;;;;;;;;6220420;23;20137;-63
2021/12/30 04:23:09;;;;;;;67.07;13.68;;;;;;;;;;6220505;23;20008;-65
2021/12/30 04:25:36;;;;;;;57.45;12.48;;;;;;;;;;6245649;23;20042;-63
2021/12/30 04:28:02;;;;;;;84.38;14.23;;;;;;;;;;6245070;23;20101;-63
2021/12/30 04:30:28;;;;;;;49.75;13.05;;;;;;;;;;6245902;23;20016;-63
2021/12/30 04:32:54;;;;;;;58.20;12.90;;;;;;;;;;6247293;23;20074;-63
2021/12/30 04:35:20;;;;;;;73.03;15.40;;;;;;;;;;6247688;23;20026;-63
2021/12/30 04:37:46;;;;;;;66.85;15.25;;;;;;;;;;6219864;23;20091;-63
2021/12/30 04:40:13;;;;;;;62.08;16.17;;;;;;;;;;6245451;23;20066;-63
2021/12/30 04:42:40;;;;;;;93.07;19.05;;;;;;;;;;6219907;23;20095;-63
2021/12/30 04:45:06;;;;;;;68.10;16.60;;;;;;;;;;6220058;23;20016;-62
2021/12/30 04:47:32;;;;;;;63.22;15.95;;;;;;;;;;6219672;23;20012;-62
2021/12/30 04:49:59;;;;;;;64.55;14.65;;;;;;;;;;6247948;23;20014;-62
2021/12/30 04:52:25;;;;;;;80.32;17.15;;;;;;;;;;6220977;23;20008;-62
2021/12/30 04:54:51;;;;;;;72.93;15.30;;;;;;;;;;6245307;23;20035;-62
2021/12/30 04:57:17;;;;;;;86.25;19.88;;;;;;;;;;6245384;23;20064;-62
2021/12/30 04:59:44;;;;;;;75.90;16.17;;;;;;;;;;6244930;23;20487;-62
2021/12/30 05:02:10;;;;;;;64.43;16.23;;;;;;;;;;6244759;23;20090;-62
2021/12/30 05:04:36;;;;;;;90.03;20.05;;;;;;;;;;6244998;23;20024;-62
2021/12/30 05:07:02;;;;;;;77.05;21.58;;;;;;;;;;6245316;23;20142;-63
2021/12/30 05:09:28;;;;;;;71.20;18.02;;;;;;;;;;6246735;23;20023;-62
2021/12/30 05:11:54;;;;;;;90.18;19.67;;;;;;;;;;6246389;23;20016;-62
2021/12/30 05:14:21;;;;;;;86.13;21.27;;;;;;;;;;6220033;23;20074;-62
2021/12/30 05:16:47;;;;;;;95.65;23.08;;;;;;;;;;6246225;23;20012;-63
2021/12/30 05:19:13;;;;;;;74.50;18.67;;;;;;;;;;6246601;23;20016;-62
2021/12/30 05:21:39;;;;;;;77.78;19.58;;;;;;;;;;6195125;23;20015;-62
2021/12/30 05:24:05;;;;;;;69.20;18.20;;;;;;;;;;6219956;23;20016;-62
2021/12/30 05:26:31;;;;;;;50.42;14.35;;;;;;;;;;6246710;23;20123;-62
2021/12/30 05:28:58;;;;;;;77.97;18.10;;;;;;;;;;6245179;23;20015;-62
2021/12/30 05:31:24;;;;;;;78.78;19.25;;;;;;;;;;6220773;23;20016;-62
2021/12/30 05:33:51;;;;;;;82.68;20.83;;;;;;;;;;6220845;23;20313;-62
2021/12/30 05:36:17;;;;;;;75.20;16.25;;;;;;;;;;6245140;23;20509;-62
2021/12/30 05:38:43;;;;;;;72.28;16.60;;;;;;;;;;6194948;23;20016;-62
2021/12/30 05:41:09;;;;;;;101.00;18.80;;;;;;;;;;6247641;23;20452;-62
2021/12/30 05:43:35;;;;;;;87.78;20.67;;;;;;;;;;6246160;23;20016;-62
2021/12/30 05:46:01;;;;;;;84.75;18.70;;;;;;;;;;6247213;23;20016;-62
2021/12/30 05:48:27;;;;;;;107.40;20.75;;;;;;;;;;6247197;23;20076;-62
2021/12/30 05:50:59;;;;;;;99.80;22.88;;;;;;;;;;6249012;23;20317;-62
2021/12/30 05:53:25;;;;;;;83.60;16.88;;;;;;;;;;6222896;23;20015;-62
2021/12/30 05:55:51;;;;;;;102.55;22.55;;;;;;;;;;6246445;23;20019;-62
2021/12/30 05:58:17;;;;;;;109.38;24.10;;;;;;;;;;6246824;23;20012;-62
2021/12/30 06:00:44;;;;;;;91.78;22.08;;;;;;;;;;6246713;23;20031;-62
2021/12/30 06:03:10;;;;;;;79.55;20.35;;;;;;;;;;6246462;23;20087;-62
2021/12/30 06:05:36;;;;;;;81.22;20.77;;;;;;;;;;6221004;23;20016;-62
2021/12/30 06:08:02;;;;;;;77.43;19.05;;;;;;;;;;6221228;23;20014;-62
2021/12/30 06:10:28;;;;;;;54.30;15.10;;;;;;;;;;6222687;23;20016;-61
2021/12/30 06:12:54;;;;;;;56.58;15.98;;;;;;;;;;6221944;23;20022;-61
2021/12/30 06:15:20;;;;;;;63.90;17.20;;;;;;;;;;6247666;23;20095;-62
2021/12/30 06:17:46;;;;;;;39.22;12.23;;;;;;;;;;6246857;23;20023;-62
2021/12/30 06:20:13;;;;;;;56.95;16.95;;;;;;;;;;6222687;23;20019;-62
2021/12/30 06:22:40;;;;;;;55.78;15.90;;;;;;;;;;6222552;23;20016;-62
2021/12/30 06:25:06;;;;;;;55.20;15.45;;;;;;;;;;6246830;23;20020;-62
2021/12/30 06:27:32;;;;;;;56.92;16.08;;;;;;;;;;6246241;23;20015;-61
2021/12/30 06:29:59;;;;;;;51.22;15.50;;;;;;;;;;6221449;23;20018;-61
2021/12/30 06:32:25;;;;;;;43.13;14.38;;;;;;;;;;6248130;23;20016;-62
2021/12/30 06:34:51;;;;;;;51.28;15.60;;;;;;;;;;6221086;23;20445;-61
2021/12/30 06:37:17;;;;;;;40.10;13.93;;;;;;;;;;6248153;23;20016;-61
2021/12/30 06:39:43;;;;;;;43.88;14.82;;;;;;;;;;6247332;23;20467;-60
2021/12/30 06:42:09;;;;;;;35.65;12.82;;;;;;;;;;6249164;23;20020;-61
2021/12/30 06:44:35;;;;;;;38.10;12.73;;;;;;;;;;6246127;23;20452;-61
2021/12/30 06:47:03;;;;;;;35.83;11.23;;;;;;;;;;6248119;23;20012;-61
2021/12/30 06:49:37;;;;;;;28.25;10.48;;;;;;;;;;6220938;23;20022;-61
2021/12/30 06:52:04;;;;;;;24.52;8.93;;;;;;;;;;6246557;23;20425;-60
2021/12/30 06:54:30;;;;;;;27.95;8.18;;;;;;;;;;6222212;23;20134;-60
2021/12/30 06:56:59;;;;;;;16.83;6.03;;;;;;;;;;6247979;23;20058;-60
2021/12/30 06:59:25;;;;;;;22.60;7.35;;;;;;;;;;6246093;23;20437;-60
2021/12/30 07:01:51;;;;;;;11.07;4.05;;;;;;;;;;6247028;23;20315;-60
2021/12/30 07:04:17;;;;;;;13.82;6.40;;;;;;;;;;6246777;23;20070;-60
2021/12/30 07:06:44;;;;;;;12.73;5.53;;;;;;;;;;6246113;23;20023;-60
2021/12/30 07:09:10;;;;;;;9.85;4.75;;;;;;;;;;6221906;23;20098;-60
2021/12/30 07:11:36;;;;;;;12.73;4.85;;;;;;;;;;6245862;23;20429;-60
2021/12/30 07:14:01;;;;;;;14.43;5.25;;;;;;;;;;6247573;23;20084;-60
2021/12/30 07:16:27;;;;;;;9.05;3.88;;;;;;;;;;6247418;23;20091;-63
2021/12/30 07:18:53;;;;;;;15.93;5.80;;;;;;;;;;6247522;23;20038;-62
2021/12/30 07:21:20;;;;;;;14.05;6.18;;;;;;;;;;6220959;23;20052;-62
2021/12/30 07:23:46;;;;;;;13.18;6.40;;;;;;;;;;6221952;23;20059;-62
2021/12/30 07:26:12;;;;;;;16.63;6.80;;;;;;;;;;6248281;23;20012;-62
2021/12/30 07:28:38;;;;;;;18.73;7.05;;;;;;;;;;6247701;23;20030;-61
2021/12/30 07:31:05;;;;;;;14.73;5.97;;;;;;;;;;6221195;23;20020;-62
2021/12/30 07:33:31;;;;;;;18.98;7.35;;;;;;;;;;6248253;23;20018;-62
2021/12/30 07:35:57;;;;;;;20.60;8.75;;;;;;;;;;6247633;23;20012;-62
2021/12/30 07:38:23;;;;;;;22.60;8.75;;;;;;;;;;6219908;23;20019;-62
2021/12/30 07:40:49;;;;;;;17.17;6.85;;;;;;;;;;6245835;23;20433;-61
2021/12/30 07:43:15;;;;;;;26.90;8.35;;;;;;;;;;6248001;23;20048;-63
2021/12/30 07:45:41;;;;;;;23.13;9.07;;;;;;;;;;6247319;23;20020;-62
2021/12/30 07:48:07;;;;;;;13.93;5.95;;;;;;;;;;6247420;23;20016;-62
2021/12/30 07:50:33;;;;;;;23.30;8.60;;;;;;;;;;6246924;23;20062;-62
2021/12/30 07:52:59;;;;;;;21.13;7.90;;;;;;;;;;6247353;23;20090;-62
2021/12/30 07:55:25;;;;;;;17.92;7.60;;;;;;;;;;6247764;23;20020;-63
2021/12/30 07:57:55;;;;;;;12.98;5.57;;;;;;;;;;6220356;23;20016;-63
2021/12/30 08:00:21;;;;;;;18.40;6.82;;;;;;;;;;6195918;23;20012;-64
2021/12/30 08:02:47;;;;;;;14.63;6.93;;;;;;;;;;6246172;23;20008;-63
2021/12/30 08:05:14;;;;;;;18.67;6.00;;;;;;;;;;6246695;23;20456;-62
2021/12/30 08:07:41;;;;;;;12.55;5.32;;;;;;;;;;6195113;23;20016;-62
2021/12/30 08:10:14;;;;;;;15.63;5.53;;;;;;;;;;6195256;23;20012;-63
2021/12/30 08:12:40;;;;;;;16.00;6.07;;;;;;;;;;6220266;23;20047;-63
2021/12/30 08:15:07;;;;;;;26.38;6.75;;;;;;;;;;6219225;23;20464;-63
2021/12/30 08:17:34;;;;;;;17.63;4.95;;;;;;;;;;6220451;23;20043;-62
2021/12/30 08:20:00;;;;;;;25.38;5.90;;;;;;;;;;6220278;23;20062;-62
2021/12/30 08:22:26;;;;;;;15.57;4.53;;;;;;;;;;6220030;23;20019;-62
2021/12/30 08:24:52;;;;;;;22.67;5.82;;;;;;;;;;6246940;23;20418;-62
2021/12/30 08:27:18;;;;;;;24.80;5.57;;;;;;;;;;6245601;23;20055;-62
2021/12/30 08:29:44;;;;;;;17.70;5.10;;;;;;;;;;6219135;23;20050;-62
2021/12/30 08:32:12;;;;;;;17.60;4.03;;;;;;;;;;6196026;23;20008;-62
2021/12/30 08:34:38;;;;;;;16.83;3.72;;;;;;;;;;6219526;23;20429;-63
2021/12/30 08:37:05;;;;;;;20.90;4.93;;;;;;;;;;6221240;23;20016;-63
2021/12/30 08:39:31;;;;;;;16.48;4.78;;;;;;;;;;6219914;23;20016;-62
2021/12/30 08:41:57;;;;;;;16.55;4.10;;;;;;;;;;6246621;23;20054;-63
2021/12/30 08:44:26;;;;;;;9.10;3.45;;;;;;;;;;6217214;23;20016;-63
2021/12/30 08:46:52;;;;;;;14.75;3.70;;;;;;;;;;6220192;23;20016;-63
2021/12/30 08:49:18;;;;;;;12.52;3.92;;;;;;;;;;6244984;23;20012;-63
2021/12/30 08:51:44;;;;;;;13.98;4.47;;;;;;;;;;6244568;23;20327;-63
2021/12/30 08:54:10;;;;;;;15.48;3.65;;;;;;;;;;6246850;23;20046;-63
2021/12/30 08:56:37;;;;;;;11.93;3.63;;;;;;;;;;6219494;23;20008;-63
2021/12/30 08:59:03;;;;;;;11.80;3.78;;;;;;;;;;6247689;22;20079;-63
2021/12/30 09:01:29;;;;;;;10.85;4.03;;;;;;;;;;6246269;23;20088;-63
2021/12/30 09:03:55;;;;;;;15.88;4.13;;;;;;;;;;6246846;23;20043;-63
2021/12/30 09:06:21;;;;;;;16.38;4.95;;;;;;;;;;6245591;23;20016;-63
2021/12/30 09:08:47;;;;;;;18.90;5.53;;;;;;;;;;6219316;23;20433;-63
2021/12/30 09:11:13;;;;;;;11.63;4.65;;;;;;;;;;6244870;23;20364;-63
2021/12/30 09:13:39;;;;;;;15.68;4.85;;;;;;;;;;6244490;23;20457;-63
2021/12/30 09:16:05;;;;;;;15.75;4.35;;;;;;;;;;6243897;23;20019;-64
2021/12/30 09:18:31;;;;;;;13.15;4.07;;;;;;;;;;6219623;23;20016;-63
2021/12/30 09:20:57;;;;;;;13.07;4.55;;;;;;;;;;6245509;23;20012;-63
2021/12/30 09:23:23;;;;;;;16.58;4.03;;;;;;;;;;6245145;23;20317;-63
2021/12/30 09:25:49;;;;;;;13.65;3.72;;;;;;;;;;6246255;23;20016;-63
2021/12/30 09:28:15;;;;;;;12.38;3.65;;;;;;;;;;6246161;23;20078;-63
2021/12/30 09:30:43;;;;;;;12.70;3.38;;;;;;;;;;6219102;23;20016;-64
2021/12/30 09:33:09;;;;;;;13.90;3.42;;;;;;;;;;6219071;23;20066;-64
2021/12/30 09:35:35;;;;;;;19.70;4.53;;;;;;;;;;6219664;23;20430;-63
2021/12/30 09:38:02;;;;;;;20.05;4.32;;;;;;;;;;6220059;23;20044;-63
2021/12/30 09:40:28;;;;;;;20.17;3.65;;;;;;;;;;6219529;23;20018;-62
2021/12/30 09:43:01;;;;;;;19.50;3.65;;;;;;;;;;6219231;23;20008;-62
2021/12/30 09:45:28;;;;;;;14.88;3.35;;;;;;;;;;6244290;23;20070;-63
2021/12/30 09:47:56;;;;;;;16.80;3.35;;;;;;;;;;6219348;23;20023;-63
2021/12/30 09:50:26;;;;;;;19.95;3.47;;;;;;;;;;6219005;23;20095;-63
2021/12/30 09:52:53;;;;;;;13.02;3.88;;;;;;;;;;6219083;23;20385;-64
2021/12/30 09:55:18;;;;;;;18.13;5.00;;;;;;;;;;6245053;23;20019;-63
2021/12/30 09:57:45;;;;;;;10.13;3.03;;;;;;;;;;6245023;23;20019;-63
2021/12/30 10:00:13;;;;;;;12.48;3.33;;;;;;;;;;6246588;23;20083;-63
2021/12/30 10:02:43;;;;;;;21.52;5.18;;;;;;;;;;6218780;23;20013;-62
2021/12/30 10:05:10;;;;;;;23.02;4.63;;;;;;;;;;6219176;23;20016;-62
2021/12/30 10:07:39;;;;;;;18.88;4.38;;;;;;;;;;6219942;23;20142;-63
2021/12/30 10:10:25;;;;;;;23.77;5.20;;;;;;;;;;6245119;23;20022;-63
2021/12/30 10:12:51;;;;;;;21.88;4.15;;;;;;;;;;6244202;23;20012;-62
2021/12/30 10:15:19;;;;;;;30.48;5.38;;;;;;;;;;6244922;23;20012;-63
2021/12/30 10:17:52;;;;;;;18.77;4.25;;;;;;;;;;6246331;22;20016;-63
2021/12/30 10:20:24;;;;;;;18.15;4.57;;;;;;;;;;6218530;23;20052;-63
2021/12/30 10:22:50;;;;;;;29.58;5.28;;;;;;;;;;6245455;22;20023;-64
2021/12/30 10:25:25;;;;;;;21.42;4.70;;;;;;;;;;6220033;23;20012;-63
2021/12/30 10:27:51;;;;;;;26.88;5.00;;;;;;;;;;6247637;23;20093;-63
2021/12/30 10:30:34;;;;;;;25.52;5.30;;;;;;;;;;6245526;23;20087;-65
2021/12/30 10:33:20;;;;;;;27.73;6.05;;;;;;;;;;6221038;23;20050;-64
2021/12/30 10:35:47;;;;;;;21.05;4.22;;;;;;;;;;6245598;23;20020;-64
2021/12/30 10:38:14;;;;;;;26.40;5.68;;;;;;;;;;6246197;23;20012;-64
2021/12/30 10:40:42;;;;;;;36.47;6.03;;;;;;;;;;6220588;23;20417;-64
2021/12/30 10:43:17;;;;;;;28.42;5.75;;;;;;;;;;6220740;23;20016;-62
2021/12/30 10:45:43;;;;;;;35.95;6.68;;;;;;;;;;6221663;23;20023;-62
2021/12/30 10:48:10;;;;;;;31.63;6.28;;;;;;;;;;6247062;23;20023;-62
2021/12/30 10:50:36;;;;;;;42.97;7.03;;;;;;;;;;6221188;23;20019;-63
2021/12/30 10:53:03;;;;;;;34.28;6.32;;;;;;;;;;6246356;23;20012;-63
2021/12/30 10:55:32;;;;;;;40.10;5.70;;;;;;;;;;6220557;23;20077;-62
2021/12/30 10:57:59;;;;;;;29.73;4.80;;;;;;;;;;6220184;23;20012;-62
2021/12/30 11:00:33;;;;;;;42.45;9.15;;;;;;;;;;6219810;23;20012;-63
2021/12/30 11:03:18;;;;;;;31.08;5.57;;;;;;;;;;6220150;23;20048;-63
2021/12/30 11:06:04;;;;;;;40.75;7.57;;;;;;;;;;6247494;23;20019;-63
2021/12/30 11:08:30;;;;;;;28.30;4.80;;;;;;;;;;6245822;23;20034;-62
2021/12/30 11:10:56;;;;;;;38.70;6.80;;;;;;;;;;6247817;22;20012;-63
2021/12/30 11:13:23;;;;;;;36.08;3.90;;;;;;;;;;6246363;23;20317;-63
2021/12/30 11:16:01;;;;;;;42.65;6.70;;;;;;;;;;6245008;23;20098;-64
2021/12/30 11:18:40;;;;;;;38.67;5.97;;;;;;;;;;6245699;23;20020;-63
2021/12/30 11:21:06;;;;;;;34.85;5.65;;;;;;;;;;6220651;23;20070;-65
2021/12/30 11:23:32;;;;;;;32.50;6.50;;;;;;;;;;6247916;23;20356;-63
2021/12/30 11:25:59;;;;;;;26.00;5.65;;;;;;;;;;6218248;23;20012;-62
2021/12/30 11:28:25;;;;;;;34.40;5.30;;;;;;;;;;6246151;23;20057;-63
2021/12/30 11:30:51;;;;;;;37.80;6.68;;;;;;;;;;6245605;23;20430;-62
2021/12/30 11:33:17;;;;;;;31.38;5.60;;;;;;;;;;6220002;23;20024;-63
2021/12/30 11:35:43;;;;;;;29.73;4.95;;;;;;;;;;6245652;23;20016;-64
2021/12/30 11:38:09;;;;;;;30.67;4.43;;;;;;;;;;6245142;23;20405;-64
2021/12/30 11:40:38;;;;;;;42.15;9.38;;;;;;;;;;6246133;23;20066;-64
2021/12/30 11:43:11;;;;;;;34.35;5.97;;;;;;;;;;6219345;23;20008;-63
2021/12/30 11:45:39;;;;;;;28.50;7.30;;;;;;;;;;6247213;23;20060;-63
2021/12/30 11:48:17;;;;;;;35.47;6.35;;;;;;;;;;6245332;23;20069;-64
2021/12/30 11:50:43;;;;;;;34.40;5.55;;;;;;;;;;6246010;23;20023;-63
2021/12/30 11:53:12;;;;;;;21.20;5.35;;;;;;;;;;6246531;23;20020;-64
2021/12/30 11:55:57;;;;;;;35.75;5.72;;;;;;;;;;6219243;23;20016;-64
2021/12/30 12:00:55;;;;;;;24.85;4.97;;;;;;;;;;6246678;23;20093;-64
2021/12/30 12:03:29;;;;;;;26.95;5.25;;;;;;;;;;6245628;23;20481;-64
2021/12/30 12:05:55;;;;;;;22.02;5.22;;;;;;;;;;6220099;23;20012;-64
2021/12/30 12:08:21;;;;;;;23.90;4.20;;;;;;;;;;6243122;23;20024;-64
2021/12/30 12:11:07;;;;;;;24.25;4.43;;;;;;;;;;6218412;23;20020;-64
2021/12/30 12:13:37;;;;;;;31.33;5.47;;;;;;;;;;6217600;23;20023;-65
2021/12/30 12:16:04;;;;;;;26.35;6.75;;;;;;;;;;6216995;23;20008;-65
2021/12/30 12:18:31;;;;;;;25.77;4.22;;;;;;;;;;6242458;23;20027;-64
2021/12/30 12:20:58;;;;;;;26.40;5.10;;;;;;;;;;6244815;23;20352;-65
2021/12/30 12:23:47;;;;;;;32.17;5.05;;;;;;;;;;6220071;23;20016;-64
2021/12/30 12:26:23;;;;;;;27.35;5.15;;;;;;;;;;6218340;23;20092;-65
2021/12/30 12:28:49;;;;;;;22.95;5.57;;;;;;;;;;6220276;23;20073;-64
2021/12/30 12:31:15;;;;;;;36.50;5.53;;;;;;;;;;6246558;23;20016;-64
2021/12/30 12:33:42;;;;;;;32.45;6.18;;;;;;;;;;6246725;23;20015;-64
2021/12/30 12:36:34;;;;;;;27.70;4.72;;;12.30;99.90;;;;;;6245965;23;20020;-64
2021/12/30 12:39:00;;;;;;;33.20;5.68;;;;;;;;;;6228556;23;20049;-64
2021/12/30 12:41:28;;;;;;;23.67;5.18;;;;;;;;;;6246605;23;20020;-64
2021/12/30 12:44:03;;;;;;;25.05;4.00;;;;;;;;;;6244204;23;20019;-64
2021/12/30 12:46:44;;;;;;;26.65;5.50;;;;;;;;;;6246645;23;20023;-64
2021/12/30 12:49:12;;;;;;;26.85;4.93;;;;;;;;;;6243310;23;20400;-68
2021/12/30 12:51:50;;;;;;;31.33;3.95;;;;;;;;;;6219555;23;20054;-64
2021/12/30 12:54:31;;;;;;;22.35;6.13;;;;;;;;;;6219740;23;20027;-64
2021/12/30 12:57:04;;;;;;;37.00;5.72;;;;;;;;;;6245564;23;20019;-63
2021/12/30 12:59:34;;;;;;;24.67;4.10;;;;;;;;;;6219134;23;20019;-62
2021/12/30 13:02:00;;;;;;;34.75;5.63;;;;;;;;;;6243602;23;20081;-63
2021/12/30 13:04:26;;;;;;;23.25;5.35;;;;;;;;;;6245223;23;20013;-63
2021/12/30 13:06:52;;;;;;;36.85;6.07;;;;;;;;;;6219292;23;20008;-63
2021/12/30 13:09:21;;;;;;;25.13;4.95;;;;;;;;;;6220955;23;20048;-63
2021/12/30 13:11:49;;;;;;;27.65;4.97;;;;;;;;;;6217928;23;20070;-63
2021/12/30 13:14:27;;;;;;;26.35;4.75;;;;;;;;;;6244325;23;20422;-64
2021/12/30 13:17:00;;;;;;;16.45;4.60;;;;;;;;;;6217783;23;20046;-64
2021/12/30 13:19:28;;;;;;;38.33;5.78;;;;;;;;;;6218540;23;20023;-64
2021/12/30 13:22:04;;;;;;;33.08;5.05;;;;;;;;;;6218628;23;20270;-64
2021/12/30 13:24:42;;;;;;;38.97;6.95;;;;;;;;;;6218727;23;20070;-64
2021/12/30 13:27:14;;;;;;;23.30;5.65;;;;;;;;;;6245406;23;20012;-64
2021/12/30 13:29:42;;;;;;;35.00;5.20;;;;;;;;;;6220341;23;20008;-64
2021/12/30 13:32:13;;;;;;;31.17;4.97;;;;;;;;;;6218326;23;20016;-64
2021/12/30 13:34:53;;;;;;;30.67;6.22;;;;;;;;;;6218827;23;20016;-64
2021/12/30 13:37:20;;;;;;;34.85;6.97;;;;;;;;;;6219118;23;20024;-64
2021/12/30 13:39:46;;;;;;;22.98;5.00;;;;;;;;;;6218960;23;20048;-64
2021/12/30 13:42:16;;;;;;;29.25;7.00;;;;;;;;;;6217283;23;20024;-64
2021/12/30 13:44:45;;;;;;;25.58;6.90;;;;;;;;;;6218858;23;20099;-64
2021/12/30 13:47:18;;;;;;;22.10;5.43;;;;;;;;;;6194954;23;20129;-64
2021/12/30 13:49:45;;;;;;;36.72;6.13;;;;;;;;;;6192350;23;20425;-64
2021/12/30 13:52:12;;;;;;;33.75;5.82;;;;;;;;;;6194812;23;20382;-64
2021/12/30 13:54:38;;;;;;;28.95;5.72;;;;;;;;;;6217826;23;20434;-64
2021/12/30 13:57:04;;;;;;;34.30;7.35;;;;;;;;;;6218721;23;20024;-63
2021/12/30 13:59:31;;;;;;;25.83;6.00;;;;;;;;;;6244328;23;20091;-64
2021/12/30 14:02:00;;;;;;;37.75;7.07;;;;;;;;;;6193901;23;20012;-63
2021/12/30 14:04:38;;;;;;;28.35;6.03;;;;;;;;;;6221143;23;20019;-64
2021/12/30 14:07:05;;;;;;;30.00;5.55;;;;;;;;;;6222211;23;20396;-63
2021/12/30 14:09:32;;;;;;;19.73;4.68;;;;;;;;;;6221697;23;20020;-63
2021/12/30 14:12:02;;;;;;;27.40;5.25;;;;;;;;;;6171249;23;20008;-63
2021/12/30 14:14:31;;;;;;;23.77;5.30;;;;;;;;;;6221974;23;20083;-63
2021/12/30 14:16:58;;;;;;;27.25;5.15;;;;;;;;;;6221493;23;20008;-64
2021/12/30 14:19:50;;;;;;;22.02;5.18;;;;;;;;;;6196521;23;20023;-63
2021/12/30 14:22:16;;;;;;;17.10;3.78;;;;;;;;;;6241125;23;20307;-64
2021/12/30 14:24:43;;;;;;;22.35;4.85;;;;;;;;;;6195767;23;20012;-63
2021/12/30 14:27:13;;;;;;;20.67;4.35;;;;;;;;;;6196644;23;20012;-63
2021/12/30 14:29:40;;;;;;;25.08;5.28;;;;;;;;;;6221344;23;20024;-64
2021/12/30 14:32:07;;;;;;;28.35;5.63;;;;;;;;;;6248135;23;20372;-63
2021/12/30 14:34:42;;;;;;;21.02;5.90;;;;;;;;;;6196707;23;20016;-64